createdAt,value
2022-10-19T00:01:29.743Z,87.94
2022-10-19T00:04:03.535Z,88.12
2022-10-19T00:06:37.987Z,88.13
2022-10-19T00:09:10.246Z,88.08
2022-10-19T00:11:42.995Z,88.46
2022-10-19T00:14:15.226Z,88.36
2022-10-19T00:16:47.137Z,88.33
2022-10-19T00:19:19.558Z,88.24
2022-10-19T00:24:25.657Z,88.28
2022-10-19T00:26:56.301Z,88.30
2022-10-19T00:29:26.826Z,88.32
2022-10-19T00:31:57.275Z,88.43
2022-10-19T00:34:28.133Z,88.40
2022-10-19T00:36:58.522Z,88.43
2022-10-19T00:39:28.959Z,88.38
2022-10-19T00:41:59.436Z,88.58
2022-10-19T00:45:05.349Z,88.54
2022-10-19T00:47:36.564Z,88.57
2022-10-19T00:50:08.476Z,88.51
2022-10-19T00:52:39.136Z,88.60
2022-10-19T00:55:10.648Z,88.45
2022-10-19T00:57:42.078Z,88.44
2022-10-19T01:00:13.777Z,88.31
2022-10-19T01:02:44.229Z,88.19
2022-10-19T01:05:14.970Z,88.17
2022-10-19T01:07:45.395Z,88.03
2022-10-19T01:10:15.848Z,87.96
2022-10-19T01:13:03.433Z,88.00
2022-10-19T01:15:41.739Z,87.51
2022-10-19T01:18:19.542Z,87.41
2022-10-19T01:21:26.066Z,87.51
2022-10-19T01:24:18.410Z,87.42
2022-10-19T01:27:04.010Z,87.18
2022-10-19T01:29:44.826Z,87.03
2022-10-19T01:32:20.404Z,86.95
2022-10-19T01:34:54.052Z,87.00
2022-10-19T01:37:33.091Z,86.85
2022-10-19T01:40:08.909Z,86.64
2022-10-19T01:42:45.742Z,86.11
2022-10-19T01:45:19.931Z,85.86
2022-10-19T01:47:55.272Z,85.54
2022-10-19T01:50:29.070Z,85.46
2022-10-19T01:53:00.245Z,85.22
2022-10-19T01:55:31.709Z,85.05
2022-10-19T01:58:08.311Z,84.84
2022-10-19T02:00:42.716Z,84.41
2022-10-19T02:03:14.613Z,84.33
2022-10-19T02:05:46.716Z,84.11
2022-10-19T02:08:21.586Z,83.75
2022-10-19T02:10:52.126Z,83.42
2022-10-19T02:13:23.519Z,82.96
2022-10-19T02:15:56.182Z,82.74
2022-10-19T02:18:30.090Z,82.53
2022-10-19T02:21:01.417Z,82.35
2022-10-19T02:23:32.003Z,82.08
2022-10-19T02:26:02.427Z,81.86
2022-10-19T02:28:33.279Z,81.68
2022-10-19T02:31:04.345Z,81.37
2022-10-19T02:33:34.803Z,80.97
2022-10-19T02:36:05.951Z,80.57
2022-10-19T02:38:36.427Z,80.39
2022-10-19T02:41:09.700Z,80.19
2022-10-19T02:43:42.320Z,79.53
2022-10-19T02:46:16.773Z,79.31
2022-10-19T02:48:47.756Z,79.03
2022-10-19T02:51:31.760Z,78.52
2022-10-19T02:54:05.090Z,78.49
2022-10-19T02:56:36.368Z,78.05
2022-10-19T02:59:06.876Z,77.97
2022-10-19T03:01:37.278Z,78.09
2022-10-19T03:04:07.797Z,77.72
2022-10-19T03:06:38.212Z,77.44
2022-10-19T03:09:08.630Z,77.61
2022-10-19T03:11:39.103Z,76.93
2022-10-19T03:14:09.772Z,76.92
2022-10-19T03:16:40.268Z,77.24
2022-10-19T03:19:10.691Z,77.09
2022-10-19T03:21:41.115Z,77.14
2022-10-19T03:24:11.502Z,77.23
2022-10-19T03:26:41.910Z,77.23
2022-10-19T03:29:12.313Z,77.35
2022-10-19T03:31:42.699Z,77.36
2022-10-19T03:34:13.130Z,77.44
2022-10-19T03:36:44.289Z,77.43
2022-10-19T03:39:16.154Z,77.67
2022-10-19T03:41:46.766Z,77.79
2022-10-19T03:44:17.223Z,77.93
2022-10-19T03:46:47.669Z,77.83
2022-10-19T03:49:18.126Z,77.90
2022-10-19T03:51:48.508Z,77.94
2022-10-19T03:54:20.648Z,77.98
2022-10-19T03:56:54.058Z,77.83
2022-10-19T03:59:25.123Z,77.85
2022-10-19T04:01:55.598Z,77.69
2022-10-19T04:04:27.164Z,77.44
2022-10-19T04:07:01.943Z,77.41
2022-10-19T04:09:33.783Z,77.67
2022-10-19T04:12:06.392Z,78.33
2022-10-19T04:14:52.553Z,78.43
2022-10-19T04:17:28.962Z,78.70
2022-10-19T04:19:58.756Z,79.08
2022-10-19T04:22:30.406Z,79.21
2022-10-19T04:25:01.873Z,79.07
2022-10-19T04:27:36.404Z,79.21
2022-10-19T04:30:08.637Z,79.05
2022-10-19T04:32:39.058Z,79.15
2022-10-19T04:35:10.533Z,79.08
2022-10-19T04:37:40.917Z,78.94
2022-10-19T04:40:15.158Z,78.62
2022-10-19T04:42:45.781Z,78.64
2022-10-19T04:45:16.366Z,78.50
2022-10-19T04:47:46.742Z,78.29
2022-10-19T04:50:17.222Z,78.56
2022-10-19T04:52:47.969Z,78.71
2022-10-19T04:55:18.711Z,78.77
2022-10-19T04:57:49.080Z,78.39
2022-10-19T05:00:20.264Z,78.57
2022-10-19T05:02:50.666Z,78.75
2022-10-19T05:05:21.116Z,78.68
2022-10-19T05:07:52.591Z,78.82
2022-10-19T05:10:23.196Z,79.17
2022-10-19T05:12:53.955Z,79.48
2022-10-19T05:15:24.451Z,79.71
2022-10-19T05:17:54.881Z,80.03
2022-10-19T05:20:25.440Z,80.50
2022-10-19T05:22:55.895Z,80.66
2022-10-19T05:25:26.341Z,80.51
2022-10-19T05:27:56.786Z,80.59
2022-10-19T05:30:28.282Z,80.71
2022-10-19T05:32:58.802Z,80.70
2022-10-19T05:35:29.150Z,80.83
2022-10-19T05:37:59.521Z,80.87
2022-10-19T05:40:30.008Z,80.47
2022-10-19T05:43:00.382Z,80.48
2022-10-19T05:45:30.681Z,80.47
2022-10-19T05:48:01.413Z,80.43
2022-10-19T05:50:31.747Z,80.35
2022-10-19T05:53:02.130Z,80.17
2022-10-19T05:55:37.141Z,80.27
2022-10-19T05:58:07.550Z,80.22
2022-10-19T06:00:38.215Z,80.13
2022-10-19T06:03:08.597Z,80.05
2022-10-19T06:05:39.642Z,79.95
2022-10-19T06:08:10.117Z,80.07
2022-10-19T06:10:40.486Z,80.05
2022-10-19T06:13:11.347Z,80.24
2022-10-19T06:15:41.750Z,80.17
2022-10-19T06:18:13.377Z,80.12
2022-10-19T06:20:44.436Z,79.94
2022-10-19T06:23:14.808Z,79.79
2022-10-19T06:25:45.469Z,79.40
2022-10-19T06:28:15.907Z,79.09
2022-10-19T06:30:46.423Z,78.91
2022-10-19T06:33:16.792Z,78.40
2022-10-19T06:35:47.213Z,78.14
2022-10-19T06:38:18.044Z,77.73
2022-10-19T06:40:50.263Z,77.70
2022-10-19T06:43:24.710Z,77.58
2022-10-19T06:45:56.085Z,77.83
2022-10-19T06:54:25.684Z,77.30
2022-10-19T06:56:56.554Z,77.04
2022-10-19T06:59:28.259Z,76.54
2022-10-19T07:01:59.780Z,76.19
2022-10-19T07:04:32.218Z,76.41
2022-10-19T07:07:03.211Z,76.02
2022-10-19T07:09:34.485Z,75.68
2022-10-19T07:12:05.946Z,75.06
2022-10-19T07:14:39.741Z,74.96
2022-10-19T07:17:11.360Z,74.40
2022-10-19T07:19:43.015Z,74.47
2022-10-19T07:22:19.706Z,74.25
2022-10-19T07:24:53.516Z,73.94
2022-10-19T07:27:24.234Z,73.49
2022-10-19T07:29:55.630Z,72.79
2022-10-19T07:32:27.287Z,72.18
2022-10-19T07:34:58.868Z,72.39
2022-10-19T07:37:33.103Z,72.53
2022-10-19T07:40:05.541Z,72.89
2022-10-19T07:42:37.761Z,71.99
2022-10-19T07:45:09.677Z,71.18
2022-10-19T07:47:39.982Z,70.28
2022-10-19T07:50:11.162Z,71.07
2022-10-19T07:52:41.834Z,71.31
2022-10-19T07:55:12.600Z,70.25
2022-10-19T07:57:44.952Z,69.39
2022-10-19T08:00:17.037Z,68.13
2022-10-19T08:03:12.139Z,66.55
2022-10-19T08:05:38.132Z,66.43
2022-10-19T08:08:08.766Z,64.71
2022-10-19T08:10:39.230Z,64.46
2022-10-19T08:13:09.919Z,63.11
2022-10-19T08:15:40.370Z,60.96
2022-10-19T08:18:11.405Z,59.74
2022-10-19T08:20:44.117Z,59.24
2022-10-19T08:23:12.971Z,57.75
2022-10-19T08:25:43.378Z,56.54
2022-10-19T08:28:13.862Z,55.53
2022-10-19T08:30:44.675Z,54.88
2022-10-19T08:33:15.228Z,54.32
2022-10-19T08:35:45.596Z,54.12
2022-10-19T08:38:16.041Z,51.99
2022-10-19T08:40:47.409Z,52.22
2022-10-19T08:43:22.909Z,51.86
2022-10-19T08:46:01.623Z,51.02
2022-10-19T08:48:38.609Z,50.96
2022-10-19T08:51:12.168Z,49.68
2022-10-19T08:53:53.186Z,49.71
2022-10-19T08:56:49.778Z,48.86
2022-10-19T08:59:31.152Z,48.90
2022-10-19T09:02:10.645Z,48.41
2022-10-19T09:04:46.811Z,47.46
2022-10-19T09:07:28.331Z,47.86
2022-10-19T09:10:01.579Z,47.11
2022-10-19T09:12:46.180Z,48.33
2022-10-19T09:15:19.835Z,48.05
2022-10-19T09:17:51.318Z,47.58
2022-10-19T09:20:26.648Z,47.59
2022-10-19T09:23:07.698Z,47.42
2022-10-19T09:25:52.371Z,48.10
2022-10-19T09:28:38.975Z,47.69
2022-10-19T09:31:14.951Z,47.00
2022-10-19T09:33:49.757Z,46.96
2022-10-19T09:39:07.012Z,47.04
2022-10-19T09:41:47.599Z,48.09
2022-10-19T09:44:19.818Z,46.73
2022-10-19T09:46:52.223Z,47.33
2022-10-19T09:49:41.736Z,46.18
2022-10-19T09:52:33.133Z,46.18
2022-10-19T09:55:04.864Z,45.50
2022-10-19T09:57:36.085Z,45.20
2022-10-19T10:00:07.789Z,44.91
2022-10-19T10:02:38.526Z,45.24
2022-10-19T10:05:11.663Z,46.03
2022-10-19T10:07:42.846Z,46.14
2022-10-19T10:10:25.651Z,46.27
2022-10-19T10:13:00.066Z,45.31
2022-10-19T10:15:32.020Z,43.90
2022-10-19T10:18:02.425Z,43.38
2022-10-19T10:20:33.572Z,42.92
2022-10-19T10:23:06.218Z,43.39
2022-10-19T10:25:37.701Z,44.35
2022-10-19T10:28:20.987Z,43.84
2022-10-19T10:30:56.426Z,43.66
2022-10-19T10:33:40.671Z,43.12
2022-10-19T10:36:15.091Z,41.96
2022-10-19T10:38:48.334Z,41.57
2022-10-19T10:41:22.994Z,42.09
2022-10-19T10:44:05.032Z,40.24
2022-10-19T10:46:43.117Z,40.69
2022-10-19T10:49:22.175Z,40.88
2022-10-19T10:52:19.916Z,40.77
2022-10-19T10:55:06.758Z,40.03
2022-10-19T10:57:45.045Z,39.48
2022-10-19T11:00:21.528Z,39.48
2022-10-19T11:03:25.519Z,39.49
2022-10-19T11:05:59.264Z,39.43
2022-10-19T11:08:35.405Z,39.90
2022-10-19T11:11:14.121Z,39.37
2022-10-19T11:13:58.150Z,39.09
2022-10-19T11:16:32.871Z,38.92
2022-10-19T11:19:16.107Z,38.52
2022-10-19T11:21:51.820Z,38.63
2022-10-19T11:27:16.327Z,39.21
2022-10-19T11:29:50.885Z,39.23
2022-10-19T11:32:30.434Z,38.91
2022-10-19T11:35:12.254Z,38.56
2022-10-19T11:37:50.094Z,38.77
2022-10-19T11:40:54.230Z,39.38
2022-10-19T11:43:38.795Z,38.31
2022-10-19T11:46:17.096Z,38.49
2022-10-19T11:49:10.551Z,38.54
2022-10-19T11:51:45.954Z,38.61
2022-10-19T11:54:28.466Z,38.16
2022-10-19T11:57:05.556Z,38.98
2022-10-19T11:59:46.929Z,39.63
2022-10-19T12:02:40.507Z,39.83
2022-10-19T12:05:13.210Z,41.08
2022-10-19T12:08:01.486Z,40.81
2022-10-19T12:10:38.133Z,41.75
2022-10-19T12:13:13.600Z,42.24
2022-10-19T12:15:45.816Z,43.31
2022-10-19T12:18:15.638Z,44.18
2022-10-19T12:20:49.946Z,44.30
2022-10-19T12:23:33.410Z,44.29
2022-10-19T12:26:06.728Z,44.11
2022-10-19T12:28:39.474Z,44.15
2022-10-19T12:31:11.809Z,44.01
2022-10-19T12:33:48.567Z,43.19
2022-10-19T12:36:27.903Z,43.38
2022-10-19T12:39:04.117Z,43.67
2022-10-19T12:41:40.289Z,43.22
2022-10-19T12:44:22.042Z,43.41
2022-10-19T12:46:58.780Z,44.23
2022-10-19T12:49:56.162Z,44.20
2022-10-19T12:53:02.349Z,43.69
2022-10-19T12:55:36.932Z,44.50
2022-10-19T12:58:26.859Z,44.95
2022-10-19T13:01:05.289Z,45.58
2022-10-19T13:04:27.912Z,45.67
2022-10-19T13:07:24.329Z,46.65
2022-10-19T13:10:06.920Z,48.13
2022-10-19T13:12:51.602Z,50.15
2022-10-19T13:15:56.839Z,51.62
2022-10-19T13:19:09.089Z,53.45
2022-10-19T13:27:40.788Z,58.15
2022-10-19T13:36:12.536Z,60.58
2022-10-19T13:38:45.948Z,61.38
2022-10-19T13:41:24.463Z,61.76
2022-10-19T13:44:06.834Z,62.44
2022-10-19T13:46:52.099Z,62.95
2022-10-19T13:49:36.598Z,63.13
2022-10-19T13:52:46.838Z,63.62
2022-10-19T13:55:32.482Z,64.16
2022-10-19T13:58:17.011Z,64.52
2022-10-19T14:01:05.433Z,64.85
2022-10-19T14:04:04.477Z,65.43
2022-10-19T14:06:37.575Z,65.76
2022-10-19T14:09:32.686Z,66.05
2022-10-19T14:12:07.508Z,66.33
2022-10-19T14:14:48.388Z,66.41
2022-10-19T14:17:20.874Z,66.86
2022-10-19T14:19:53.720Z,67.12
2022-10-19T14:22:25.850Z,67.56
2022-10-19T14:25:03.276Z,67.85
2022-10-19T14:27:34.429Z,67.80
2022-10-19T14:30:06.310Z,68.15
2022-10-19T14:32:36.992Z,68.23
2022-10-19T14:35:21.401Z,68.22
2022-10-19T14:37:52.472Z,68.72
2022-10-19T14:40:28.688Z,68.91
2022-10-19T14:43:00.191Z,69.18
2022-10-19T14:45:32.861Z,69.36
2022-10-19T14:48:05.251Z,69.59
2022-10-19T14:50:42.654Z,69.60
2022-10-19T14:53:35.132Z,69.77
2022-10-19T14:56:10.262Z,69.87
2022-10-19T15:03:16.871Z,70.06
2022-10-19T15:05:56.687Z,69.87
2022-10-19T15:08:37.784Z,70.00
2022-10-19T15:11:09.729Z,70.01
2022-10-19T15:13:43.694Z,70.29
2022-10-19T15:16:35.506Z,70.47
2022-10-19T15:19:18.335Z,70.50
2022-10-19T15:21:49.592Z,70.52
2022-10-19T15:24:28.197Z,70.83
2022-10-19T15:27:10.086Z,70.91
2022-10-19T15:29:41.169Z,71.00
2022-10-19T15:32:20.488Z,71.07
2022-10-19T15:34:51.981Z,71.00
2022-10-19T15:46:10.162Z,71.68
2022-10-19T15:51:51.318Z,71.92
2022-10-19T15:54:24.387Z,72.50
2022-10-19T15:56:56.440Z,72.93
2022-10-19T15:59:26.906Z,73.11
2022-10-19T16:01:57.628Z,73.33
2022-10-19T16:04:28.177Z,73.40
2022-10-19T16:06:58.800Z,73.61
2022-10-19T16:09:29.555Z,73.84
2022-10-19T16:17:58.651Z,74.40
2022-10-19T16:20:31.622Z,74.89
2022-10-19T16:23:02.124Z,75.13
2022-10-19T16:25:32.467Z,75.25
2022-10-19T16:28:02.924Z,75.63
2022-10-19T16:30:33.409Z,75.78
2022-10-19T16:33:03.838Z,76.23
2022-10-19T16:35:34.277Z,76.44
2022-10-19T16:38:04.766Z,76.46
2022-10-19T16:40:35.327Z,76.43
2022-10-19T16:43:06.180Z,76.69
2022-10-19T16:45:36.727Z,76.99
2022-10-19T16:48:07.870Z,76.88
2022-10-19T16:50:38.355Z,76.87
2022-10-19T16:53:11.071Z,77.00
2022-10-19T16:55:42.612Z,76.96
2022-10-19T16:58:13.934Z,76.82
2022-10-19T17:00:45.180Z,76.60
2022-10-19T17:03:16.226Z,76.77
2022-10-19T17:05:47.754Z,76.87
2022-10-19T17:08:21.621Z,77.03
2022-10-19T17:10:52.732Z,77.08
2022-10-19T17:13:24.404Z,77.18
2022-10-19T17:15:56.264Z,77.45
2022-10-19T17:18:28.715Z,77.38
2022-10-19T17:26:56.073Z,77.39
2022-10-19T17:29:26.763Z,77.66
2022-10-19T17:31:57.566Z,77.80
2022-10-19T17:34:28.768Z,78.08
2022-10-19T17:37:00.385Z,78.38
2022-10-19T17:39:32.250Z,78.96
2022-10-19T17:42:05.134Z,79.61
2022-10-19T17:44:36.180Z,79.78
2022-10-19T17:49:52.774Z,80.55
2022-10-19T17:52:41.094Z,80.72
2022-10-19T17:55:13.767Z,81.06
2022-10-19T17:57:45.277Z,81.11
2022-10-19T18:00:18.265Z,81.02
2022-10-19T18:02:48.985Z,81.18
2022-10-19T18:05:38.438Z,81.61
2022-10-19T18:08:18.899Z,81.82
2022-10-19T18:10:53.251Z,81.61
2022-10-19T18:13:24.548Z,81.55
2022-10-19T18:16:03.647Z,81.55
2022-10-19T18:18:37.725Z,81.72
2022-10-19T18:21:16.744Z,82.02
2022-10-19T18:23:48.637Z,82.27
2022-10-19T18:26:21.980Z,82.16
2022-10-19T18:28:54.414Z,82.06
2022-10-19T18:31:29.208Z,81.88
2022-10-19T18:34:02.336Z,82.13
2022-10-19T18:43:03.733Z,82.27
2022-10-19T18:45:35.387Z,82.44
2022-10-19T18:48:56.593Z,82.34
2022-10-19T18:51:36.311Z,82.71
2022-10-19T18:54:08.116Z,82.52
2022-10-19T18:56:39.199Z,82.72
2022-10-19T18:59:10.610Z,82.60
2022-10-19T19:01:42.096Z,82.41
2022-10-19T19:04:13.713Z,82.47
2022-10-19T19:06:44.799Z,82.32
2022-10-19T19:09:18.049Z,82.17
2022-10-19T19:11:49.152Z,82.36
2022-10-19T19:14:22.684Z,82.41
2022-10-19T19:16:54.287Z,82.47
2022-10-19T19:19:28.153Z,82.34
2022-10-19T19:22:07.789Z,82.20
2022-10-19T19:24:39.862Z,82.07
2022-10-19T19:27:12.432Z,82.26
2022-10-19T19:29:44.199Z,82.05
2022-10-19T19:32:15.540Z,82.25
2022-10-19T19:34:51.208Z,82.12
2022-10-19T19:37:28.320Z,82.21
2022-10-19T19:39:59.455Z,82.11
2022-10-19T19:42:30.973Z,82.34
2022-10-19T19:45:04.944Z,82.16
2022-10-19T19:47:37.221Z,82.15
2022-10-19T19:50:10.338Z,82.37
2022-10-19T19:52:40.614Z,82.31
2022-10-19T19:55:12.194Z,82.24
2022-10-19T19:57:43.571Z,82.31
2022-10-19T20:00:16.368Z,82.61
2022-10-19T20:02:47.306Z,82.78
2022-10-19T20:05:17.837Z,83.03
2022-10-19T20:07:48.267Z,82.92
2022-10-19T20:10:20.110Z,82.64
2022-10-19T20:12:54.247Z,82.46
2022-10-19T20:15:41.652Z,82.80
2022-10-19T20:18:13.109Z,82.99
2022-10-19T20:20:45.481Z,82.75
2022-10-19T20:23:16.213Z,82.78
2022-10-19T20:25:47.154Z,83.33
2022-10-19T20:28:18.188Z,83.41
2022-10-19T20:30:49.771Z,83.13
2022-10-19T20:33:25.800Z,82.95
2022-10-19T20:35:59.059Z,82.83
2022-10-19T20:38:43.044Z,82.82
2022-10-19T20:41:14.099Z,83.18
2022-10-19T20:43:49.013Z,83.15
2022-10-19T20:46:24.868Z,83.10
2022-10-19T20:48:57.224Z,83.13
2022-10-19T20:51:31.852Z,83.13
2022-10-19T20:54:06.381Z,83.16
2022-10-19T20:56:42.639Z,83.33
2022-10-19T20:59:20.767Z,83.35
2022-10-19T21:01:57.831Z,83.42
2022-10-19T21:04:41.077Z,83.55
2022-10-19T21:10:00.438Z,83.39
2022-10-19T21:12:31.075Z,83.34
2022-10-19T21:15:01.429Z,83.26
2022-10-19T21:20:08.880Z,83.26
2022-10-19T21:22:41.363Z,82.95
2022-10-19T21:25:12.663Z,83.02
2022-10-19T21:27:43.062Z,83.01
2022-10-19T21:30:14.077Z,83.08
2022-10-19T21:32:44.473Z,82.95
2022-10-19T21:35:15.192Z,83.11
2022-10-19T21:37:45.589Z,82.94
2022-10-19T21:40:16.305Z,82.87
2022-10-19T21:42:46.676Z,82.71
2022-10-19T21:45:29.853Z,82.89
2022-10-19T21:48:01.142Z,82.78
2022-10-19T21:50:31.643Z,82.88
2022-10-19T21:53:02.800Z,82.57
2022-10-19T21:55:37.159Z,82.31
2022-10-19T21:58:07.789Z,82.17
2022-10-19T22:00:38.237Z,81.99
2022-10-19T22:03:08.773Z,81.93
2022-10-19T22:05:39.546Z,81.74
2022-10-19T22:08:10.001Z,81.60
2022-10-19T22:10:41.635Z,81.50
2022-10-19T22:13:13.342Z,81.40
2022-10-19T22:15:44.576Z,81.18
2022-10-19T22:18:18.048Z,80.98
2022-10-19T22:20:52.504Z,81.04
2022-10-19T22:28:17.575Z,80.99
2022-10-19T22:30:55.600Z,80.72
2022-10-19T22:33:30.322Z,80.78
2022-10-19T22:36:06.175Z,80.53
2022-10-19T22:38:39.411Z,80.48
2022-10-19T22:41:13.293Z,80.50
2022-10-19T22:43:44.978Z,80.59
2022-10-19T22:46:16.346Z,80.66
2022-10-19T22:48:46.849Z,80.71
2022-10-19T22:51:17.549Z,80.62
2022-10-19T22:53:48.564Z,80.67
2022-10-19T22:56:19.528Z,80.68
2022-10-19T22:58:50.454Z,80.51
2022-10-19T23:01:28.298Z,80.41
2022-10-19T23:04:06.437Z,80.48
2022-10-19T23:06:37.669Z,80.40
2022-10-19T23:09:08.710Z,80.47
2022-10-19T23:11:39.025Z,80.51
2022-10-19T23:14:09.388Z,80.56
2022-10-19T23:16:39.732Z,80.48
2022-10-19T23:19:10.116Z,80.44
2022-10-19T23:21:40.526Z,80.22
2022-10-19T23:24:13.861Z,80.44
2022-10-19T23:26:44.270Z,80.20
2022-10-19T23:29:15.651Z,80.08
2022-10-19T23:31:45.992Z,79.84
2022-10-19T23:34:16.402Z,79.90
2022-10-19T23:36:46.773Z,79.99
2022-10-19T23:39:17.061Z,79.83
2022-10-19T23:41:47.458Z,79.64
2022-10-19T23:44:17.976Z,79.65
2022-10-19T23:46:48.368Z,79.63
2022-10-19T23:49:18.853Z,79.72
2022-10-19T23:51:49.238Z,79.68
2022-10-19T23:54:19.690Z,79.46
2022-10-19T23:56:50.131Z,79.47
2022-10-19T23:59:20.706Z,79.53
